Time;durP1;ratioP1;P1;durP2;ratioP2;P2;SDS_P1;SDS_P2;PMS_P1;PMS_P2;Temp;Humidity;BMP_temperature;BMP_pressure;BME280_temperature;BME280_humidity;BME280_pressure;Samples;Min_cycle;Max_cycle;Signal;HPM_P1;HPM_P2
2023/11/02 00:01:42;;;;;;;10.55;2.65;;;;;;;;;;5032317;28;20033;-32
2023/11/02 00:04:10;;;;;;;7.13;2.17;;;;;;;;;;5032307;28;20033;-33
2023/11/02 00:06:38;;;;;;;14.27;1.92;;;;;;;;;;5032517;28;20044;-32
2023/11/02 00:09:10;;;;;;;13.07;2.35;;;;;;;;;;5032408;28;20480;-32
2023/11/02 00:11:58;;;;;;;13.68;2.25;;;;;;;;;;5025013;28;20397;-33
2023/11/02 00:14:28;;;;;;;12.88;2.17;;;;;;;;;;5028969;28;20041;-32
2023/11/02 00:16:57;;;;;;;13.63;2.53;;;;;;;;;;5031267;28;20507;-32
2023/11/02 00:19:30;;;;;;;29.73;3.80;;;;;;;;;;5032176;28;20037;-33
2023/11/02 00:21:57;;;;;;;28.63;4.10;;;;;;;;;;5031821;28;20029;-32
2023/11/02 00:24:25;;;;;;;23.92;4.07;;;;;;;;;;5031672;28;20054;-32
2023/11/02 00:26:52;;;;;;;23.85;3.35;;;;;;;;;;5031771;28;20037;-33
2023/11/02 00:29:19;;;;;;;25.63;5.25;;;;;;;;;;5031769;28;20120;-33
2023/11/02 00:31:46;;;;;;;26.73;5.25;;;;;;;;;;5031638;28;20037;-33
2023/11/02 00:34:14;;;;;;;17.67;4.03;;;;;;;;;;5031510;28;20026;-33
2023/11/02 00:36:41;;;;;;;23.67;4.45;;;;;;;;;;5031573;28;20476;-32
2023/11/02 00:39:09;;;;;;;23.38;3.90;;;;;;;;;;5031790;28;20091;-32
2023/11/02 00:41:36;;;;;;;21.10;4.07;;;;;;;;;;5031657;28;20129;-33
2023/11/02 00:44:04;;;;;;;18.35;4.53;;;;;;;;;;5031109;28;20104;-33
2023/11/02 00:46:34;;;;;;;23.02;4.40;;;;;;;;;;5030476;28;20034;-32
2023/11/02 00:49:02;;;;;;;24.15;5.28;;;;;;;;;;5031278;28;20112;-33
2023/11/02 00:51:30;;;;;;;50.78;5.43;;;;;;;;;;5031296;28;20458;-33
2023/11/02 00:53:58;;;;;;;25.13;5.07;;;;;;;;;;5031114;28;20025;-33
2023/11/02 00:56:30;;;;;;;19.63;4.78;;;;;;;;;;5031535;28;20501;-33
2023/11/02 00:58:57;;;;;;;28.77;4.40;;;;;;;;;;5031088;28;20064;-33
2023/11/02 01:01:29;;;;;;;30.35;5.05;;;;;;;;;;5012546;28;20034;-32
2023/11/02 01:03:59;;;;;;;25.73;4.85;;;;;;;;;;5011443;28;20057;-33
2023/11/02 01:06:31;;;;;;;22.10;4.38;;;;;;;;;;5011863;28;20037;-33
2023/11/02 01:09:04;;;;;;;30.92;5.70;;;;;;;;;;5011221;28;20412;-33
2023/11/02 01:11:32;;;;;;;28.25;5.45;;;;;;;;;;5011715;28;20771;-33
2023/11/02 01:14:01;;;;;;;28.65;5.15;;;;;;;;;;5011036;28;20141;-33
2023/11/02 01:16:29;;;;;;;27.20;5.05;;;;;;;;;;5009359;28;20463;-33
2023/11/02 01:18:57;;;;;;;32.95;5.68;;;;;;;;;;5010012;28;20037;-33
2023/11/02 01:21:26;;;;;;;37.75;6.50;;;;;;;;;;5010426;28;20048;-33
2023/11/02 01:24:01;;;;;;;41.72;7.18;;;;;;;;;;5001164;28;20084;-33
2023/11/02 01:26:46;;;;;;;32.38;6.10;;;;;;;;;;5011003;28;20054;-33
2023/11/02 01:29:13;;;;;;;29.25;5.45;;;;;;;;;;5011126;28;20125;-33
2023/11/02 01:31:41;;;;;;;31.50;6.43;;;;;;;;;;5011065;28;20381;-34
2023/11/02 01:34:09;;;;;;;31.58;6.70;;;;;;;;;;5010995;28;20077;-33
2023/11/02 01:36:37;;;;;;;32.65;6.15;;;;;;;;;;5011044;28;20093;-33
2023/11/02 01:39:16;;;;;;;30.40;6.20;;;;;;;;;;4993560;28;20558;-33
2023/11/02 01:41:47;;;;;;;29.23;5.75;;;;;;;;;;5010403;28;20069;-33
2023/11/02 01:44:14;;;;;;;44.03;6.00;;;;;;;;;;5010530;28;20042;-33
2023/11/02 01:46:52;;;;;;;33.38;6.10;;;;;;;;;;5013565;28;20037;-33
2023/11/02 01:49:27;;;;;;;35.55;6.88;;;;;;;;;;5014937;28;20044;-33
2023/11/02 01:52:13;;;;;;;30.80;6.68;;;;;;;;;;5013081;28;20149;-33
2023/11/02 01:54:40;;;;;;;30.23;5.25;;;;;;;;;;5014296;28;20041;-33
2023/11/02 01:57:10;;;;;;;40.75;6.18;;;;;;;;;;5015088;28;20050;-32
2023/11/02 01:59:44;;;;;;;24.98;5.32;;;;;;;;;;5014549;28;20116;-32
2023/11/02 02:02:24;;;;;;;25.90;5.53;;;;;;;;;;5015045;28;20595;-32
2023/11/02 02:04:55;;;;;;;12.68;4.35;;;;;;;;;;4996167;28;20121;-33
2023/11/02 02:07:28;;;;;;;12.82;3.95;;;;;;;;;;5014520;28;20511;-33
2023/11/02 02:10:08;;;;;;;20.60;3.42;;;;;;;;;;5014710;28;20030;-32
2023/11/02 02:12:49;;;;;;;17.85;3.83;;;;;;;;;;5013948;28;20034;-32
2023/11/02 02:15:16;;;;;;;17.50;4.05;;;;;;;;;;4996988;28;20030;-32
2023/11/02 02:17:59;;;;;;;12.27;2.85;;;;;;;;;;4996953;28;20048;-32
2023/11/02 02:20:32;;;;;;;12.25;2.97;;;;;;;;;;5014568;28;20025;-33
2023/11/02 02:23:13;;;;;;;13.23;3.42;;;;;;;;;;5013733;28;20080;-32
2023/11/02 02:25:53;;;;;;;13.30;3.10;;;;;;;;;;5014824;28;20400;-33
2023/11/02 02:28:21;;;;;;;10.40;3.13;;;;;;;;;;5013955;28;20908;-33
2023/11/02 02:30:50;;;;;;;14.32;2.63;;;;;;;;;;5014571;28;20065;-33
2023/11/02 02:33:47;;;;;;;10.93;2.88;;;;;;;;;;5014370;28;20204;-33
2023/11/02 02:36:19;;;;;;;19.00;3.70;;;;;;;;;;5014284;28;20160;-33
2023/11/02 02:39:19;;;;;;;14.18;2.67;;;;;;;;;;5014387;28;20034;-32
2023/11/02 02:41:48;;;;;;;16.67;4.13;;;;;;;;;;4952021;28;20042;-33
2023/11/02 02:44:16;;;;;;;20.48;4.13;;;;;;;;;;5010469;28;20439;-32
2023/11/02 02:46:43;;;;;;;15.80;3.15;;;;;;;;;;5013566;28;20380;-32
2023/11/02 02:49:10;;;;;;;17.73;2.90;;;;;;;;;;5013895;28;20057;-33
2023/11/02 02:51:37;;;;;;;15.85;2.85;;;;;;;;;;5013849;28;20042;-33
2023/11/02 02:54:08;;;;;;;13.18;2.95;;;;;;;;;;4996134;28;20033;-32
2023/11/02 02:56:37;;;;;;;13.70;2.83;;;;;;;;;;5013613;28;20034;-32
2023/11/02 02:59:10;;;;;;;14.63;3.08;;;;;;;;;;5004761;28;20719;-33
2023/11/02 03:01:41;;;;;;;11.10;2.58;;;;;;;;;;5013817;28;20022;-32
2023/11/02 03:04:14;;;;;;;12.63;2.63;;;;;;;;;;5013618;28;20500;-33
2023/11/02 03:06:46;;;;;;;12.10;2.90;;;;;;;;;;5010862;28;20037;-33
2023/11/02 03:09:15;;;;;;;10.68;3.28;;;;;;;;;;5013787;28;20026;-32
2023/11/02 03:11:46;;;;;;;8.10;2.72;;;;;;;;;;5013591;28;20033;-33
2023/11/02 03:14:14;;;;;;;7.85;2.33;;;;;;;;;;5013466;28;20507;-33
2023/11/02 03:16:43;;;;;;;14.90;2.53;;;;;;;;;;5003956;28;20056;-32
2023/11/02 03:19:12;;;;;;;10.20;2.53;;;;;;;;;;5013447;28;20030;-32
2023/11/02 03:21:40;;;;;;;7.72;1.90;;;;;;;;;;5013564;28;20049;-33
2023/11/02 03:24:07;;;;;;;8.73;1.83;;;;;;;;;;5013124;28;20037;-32
2023/11/02 03:26:55;;;;;;;9.55;2.80;;;;;;;;;;5013449;28;20441;-33
2023/11/02 03:29:29;;;;;;;6.78;2.30;;;;;;;;;;5012906;28;20041;-32
2023/11/02 03:32:19;;;;;;;11.82;2.47;;;;;;;;;;5013304;28;20033;-33
2023/11/02 03:34:47;;;;;;;7.72;2.15;;;;;;;;;;4985253;28;20046;-32
2023/11/02 03:37:16;;;;;;;6.60;1.95;;;;;;;;;;5010490;28;20477;-32
2023/11/02 03:40:02;;;;;;;11.95;1.73;;;;;;;;;;5010462;28;20449;-32
2023/11/02 03:42:49;;;;;;;5.82;1.55;;;;;;;;;;5013222;28;20104;-32
2023/11/02 03:45:29;;;;;;;17.55;2.22;;;;;;;;;;5012322;28;20034;-33
2023/11/02 03:48:14;;;;;;;9.10;2.25;;;;;;;;;;5012747;28;20045;-33
2023/11/02 03:50:41;;;;;;;5.72;1.55;;;;;;;;;;5013246;28;20780;-33
2023/11/02 03:53:20;;;;;;;9.30;1.90;;;;;;;;;;5012938;28;20451;-32
2023/11/02 03:56:12;;;;;;;5.30;1.38;;;;;;;;;;5013158;28;20041;-32
2023/11/02 03:58:55;;;;;;;5.97;1.75;;;;;;;;;;5013318;28;20099;-32
2023/11/02 04:01:28;;;;;;;7.68;1.80;;;;;;;;;;5013353;28;20041;-32
2023/11/02 04:03:59;;;;;;;6.80;1.60;;;;;;;;;;5012918;28;20547;-32
2023/11/02 04:06:37;;;;;;;4.00;1.35;;;;;;;;;;4995371;28;20111;-32
2023/11/02 04:09:04;;;;;;;4.40;1.50;;;;;;;;;;5012892;28;20034;-32
2023/11/02 04:11:36;;;;;;;5.25;1.83;;;;;;;;;;5013204;28;20045;-32
2023/11/02 04:14:13;;;;;;;7.95;1.70;;;;;;;;;;5012980;28;20030;-32
2023/11/02 04:16:40;;;;;;;4.90;1.50;;;;;;;;;;5012940;28;20393;-32
2023/11/02 04:19:08;;;;;;;4.63;1.50;;;;;;;;;;5012989;28;20037;-32
2023/11/02 04:21:35;;;;;;;4.95;1.52;;;;;;;;;;4995195;28;20044;-32
2023/11/02 04:24:02;;;;;;;5.13;1.67;;;;;;;;;;5012795;28;20038;-32
2023/11/02 04:26:29;;;;;;;5.20;1.23;;;;;;;;;;5012620;28;20068;-32
2023/11/02 04:28:56;;;;;;;5.22;1.58;;;;;;;;;;5012807;28;20395;-33
2023/11/02 04:31:23;;;;;;;7.15;1.48;;;;;;;;;;5012674;28;20495;-32
2023/11/02 04:33:50;;;;;;;4.05;1.50;;;;;;;;;;5012606;28;20030;-32
2023/11/02 04:36:17;;;;;;;4.63;1.13;;;;;;;;;;5012042;28;20025;-33
2023/11/02 04:38:45;;;;;;;4.60;1.60;;;;;;;;;;5012009;28;20042;-33
2023/11/02 04:41:12;;;;;;;4.68;1.10;;;;;;;;;;5012514;28;20033;-33
2023/11/02 04:43:39;;;;;;;5.70;1.50;;;;;;;;;;5012387;28;20073;-33
2023/11/02 04:46:06;;;;;;;3.38;1.00;;;;;;;;;;5012512;28;20034;-33
2023/11/02 04:48:33;;;;;;;6.13;1.20;;;;;;;;;;5012423;28;20026;-33
2023/11/02 04:51:00;;;;;;;4.65;1.40;;;;;;;;;;5012478;28;20084;-33
2023/11/02 04:53:27;;;;;;;6.03;1.13;;;;;;;;;;5012225;28;20491;-33
2023/11/02 04:55:54;;;;;;;3.17;0.98;;;;;;;;;;5012004;28;20515;-32
2023/11/02 04:58:21;;;;;;;3.03;1.00;;;;;;;;;;5012419;28;20061;-32
2023/11/02 05:00:50;;;;;;;2.58;1.10;;;;;;;;;;5012295;28;20060;-32
2023/11/02 05:03:17;;;;;;;3.03;1.10;;;;;;;;;;5011954;28;20049;-32
2023/11/02 05:05:44;;;;;;;4.05;1.42;;;;;;;;;;5012128;28;20026;-32
2023/11/02 05:08:11;;;;;;;3.30;1.08;;;;;;;;;;5012165;28;20457;-32
2023/11/02 05:10:38;;;;;;;3.47;0.88;;;;;;;;;;5012097;28;20026;-32
2023/11/02 05:13:05;;;;;;;3.65;1.20;;;;;;;;;;5012034;28;20084;-32
2023/11/02 05:15:32;;;;;;;2.30;1.00;;;;;;;;;;5012070;28;20484;-32
2023/11/02 05:17:59;;;;;;;3.10;1.10;;;;;;;;;;5011946;28;20033;-32
2023/11/02 05:20:27;;;;;;;3.78;1.20;;;;;;;;;;5011208;28;20120;-32
2023/11/02 05:22:55;;;;;;;2.70;1.05;;;;;;;;;;5011907;28;20038;-32
2023/11/02 05:25:23;;;;;;;2.92;0.90;;;;;;;;;;5011930;28;20512;-32
2023/11/02 05:27:50;;;;;;;2.15;0.70;;;;;;;;;;5011544;28;20551;-32
2023/11/02 05:30:17;;;;;;;3.20;1.00;;;;;;;;;;5011722;28;20025;-32
2023/11/02 05:32:44;;;;;;;3.95;0.90;;;;;;;;;;5011618;28;20042;-32
2023/11/02 05:35:12;;;;;;;2.75;1.10;;;;;;;;;;5011549;28;20034;-32
2023/11/02 05:37:39;;;;;;;2.53;0.80;;;;;;;;;;5011583;28;20038;-32
2023/11/02 05:40:07;;;;;;;4.43;1.17;;;;;;;;;;5011762;28;20057;-32
2023/11/02 05:42:34;;;;;;;2.13;0.90;;;;;;;;;;5011744;28;20026;-32
2023/11/02 05:45:02;;;;;;;2.65;0.98;;;;;;;;;;5011455;28;20038;-32
2023/11/02 05:47:30;;;;;;;1.30;0.60;;;;;;;;;;5011595;28;20117;-32
2023/11/02 05:49:57;;;;;;;2.40;0.90;;;;;;;;;;5011534;28;20062;-32
2023/11/02 05:52:24;;;;;;;2.50;0.88;;;;;;;;;;5011655;28;20574;-32
2023/11/02 05:54:51;;;;;;;3.35;1.15;;;;;;;;;;5011562;28;20045;-32
2023/11/02 05:57:18;;;;;;;2.35;0.70;;;;;;;;;;5011613;28;20397;-32
2023/11/02 05:59:44;;;;;;;3.33;0.90;;;;;;;;;;5011621;28;20050;-32
2023/11/02 06:02:12;;;;;;;1.67;0.70;;;;;;;;;;5009158;28;20034;-33
2023/11/02 06:04:39;;;;;;;2.20;0.75;;;;;;;;;;5011117;28;20048;-33
2023/11/02 06:07:06;;;;;;;4.10;0.93;;;;;;;;;;5011422;28;20022;-33
2023/11/02 06:09:33;;;;;;;2.25;0.85;;;;;;;;;;5011540;28;20076;-33
2023/11/02 06:12:00;;;;;;;4.10;1.00;;;;;;;;;;5011553;28;20057;-33
2023/11/02 06:14:27;;;;;;;3.13;1.00;;;;;;;;;;5011417;28;20037;-33
2023/11/02 06:16:54;;;;;;;3.63;1.00;;;;;;;;;;5011491;28;20068;-33
2023/11/02 06:19:21;;;;;;;2.55;0.90;;;;;;;;;;5011415;28;20026;-33
2023/11/02 06:21:48;;;;;;;1.67;0.70;;;;;;;;;;5010954;28;20062;-33
2023/11/02 06:24:16;;;;;;;2.08;0.70;;;;;;;;;;5011243;28;20531;-33
2023/11/02 06:26:43;;;;;;;2.00;0.95;;;;;;;;;;5010983;28;20428;-33
2023/11/02 06:29:13;;;;;;;2.58;1.00;;;;;;;;;;5011416;28;20022;-33
2023/11/02 06:31:40;;;;;;;3.95;1.10;;;;;;;;;;5011782;28;20066;-33
2023/11/02 06:34:06;;;;;;;2.28;0.93;;;;;;;;;;5014731;28;20502;-32
2023/11/02 06:36:33;;;;;;;1.90;0.65;;;;;;;;;;4997187;28;20030;-32
2023/11/02 06:39:00;;;;;;;3.97;0.88;;;;;;;;;;5014917;28;20030;-33
2023/11/02 06:41:27;;;;;;;2.55;0.95;;;;;;;;;;5014716;28;20109;-33
2023/11/02 06:43:54;;;;;;;2.78;0.80;;;;;;;;;;5014581;28;20042;-33
2023/11/02 06:46:21;;;;;;;2.47;0.98;;;;;;;;;;5014777;28;20117;-33
2023/11/02 06:48:48;;;;;;;2.88;0.77;;;;;;;;;;5014554;28;20056;-32
2023/11/02 06:51:15;;;;;;;3.50;1.02;;;;;;;;;;5014554;28;20486;-32
2023/11/02 06:53:42;;;;;;;2.45;0.85;;;;;;;;;;5014284;28;20029;-32
2023/11/02 06:56:09;;;;;;;2.10;0.85;;;;;;;;;;5014599;28;20034;-32
2023/11/02 06:58:36;;;;;;;4.25;0.98;;;;;;;;;;5014492;28;20148;-32
2023/11/02 07:01:04;;;;;;;2.13;0.90;;;;;;;;;;5014332;28;20117;-32
2023/11/02 07:03:31;;;;;;;4.47;0.93;;;;;;;;;;5014015;28;20409;-32
2023/11/02 07:05:58;;;;;;;3.65;0.68;;;;;;;;;;5014382;28;20088;-32
2023/11/02 07:08:25;;;;;;;3.35;1.10;;;;;;;;;;5014278;28;20496;-32
2023/11/02 07:10:52;;;;;;;4.40;1.00;;;;;;;;;;5014260;28;20045;-32
2023/11/02 07:13:19;;;;;;;3.35;0.98;;;;;;;;;;5014105;28;20156;-32
2023/11/02 07:15:46;;;;;;;2.55;1.10;;;;;;;;;;5014177;28;20076;-32
2023/11/02 07:18:13;;;;;;;3.20;0.90;;;;;;;;;;5014110;28;20100;-33
2023/11/02 07:20:40;;;;;;;2.05;0.95;;;;;;;;;;5014063;28;20037;-33
2023/11/02 07:23:07;;;;;;;1.40;0.70;;;;;;;;;;5013839;28;20042;-33
2023/11/02 07:25:34;;;;;;;1.80;0.60;;;;;;;;;;5014046;28;20412;-33
2023/11/02 07:28:01;;;;;;;1.42;0.65;;;;;;;;;;5013866;28;20566;-32
2023/11/02 07:30:28;;;;;;;3.50;0.90;;;;;;;;;;5013911;28;20034;-33
2023/11/02 07:32:55;;;;;;;3.45;0.90;;;;;;;;;;5013755;28;20026;-33
2023/11/02 07:35:25;;;;;;;2.08;0.88;;;;;;;;;;5013857;28;20034;-33
2023/11/02 07:37:53;;;;;;;3.38;0.95;;;;;;;;;;5013886;28;20058;-33
2023/11/02 07:40:20;;;;;;;1.60;0.57;;;;;;;;;;5013762;28;20048;-33
2023/11/02 07:42:47;;;;;;;3.47;0.80;;;;;;;;;;5013382;28;20030;-33
2023/11/02 07:45:14;;;;;;;2.70;0.75;;;;;;;;;;5013299;28;20061;-33
2023/11/02 07:47:41;;;;;;;1.85;0.82;;;;;;;;;;5013620;28;20021;-33
2023/11/02 07:50:08;;;;;;;4.50;1.10;;;;;;;;;;5013565;28;20029;-32
2023/11/02 07:52:37;;;;;;;2.63;0.82;;;;;;;;;;4995668;28;20036;-32
2023/11/02 07:55:05;;;;;;;3.90;0.70;;;;;;;;;;5013361;28;20050;-32
2023/11/02 07:57:32;;;;;;;2.97;0.80;;;;;;;;;;5013365;28;20038;-32
2023/11/02 07:59:59;;;;;;;1.90;0.77;;;;;;;;;;5013450;28;20503;-32
2023/11/02 08:02:26;;;;;;;2.40;0.85;;;;;;;;;;5013395;28;20500;-32
2023/11/02 08:04:53;;;;;;;3.47;0.88;;;;;;;;;;5013231;28;20693;-32
2023/11/02 08:07:20;;;;;;;2.20;0.80;;;;;;;;;;5013316;28;20218;-32
2023/11/02 08:09:47;;;;;;;2.03;0.70;;;;;;;;;;4995556;28;20040;-32
2023/11/02 08:12:15;;;;;;;2.75;0.98;;;;;;;;;;5013045;28;20393;-32
2023/11/02 08:14:43;;;;;;;1.48;0.70;;;;;;;;;;5012914;28;20067;-32
2023/11/02 08:17:16;;;;;;;2.47;0.82;;;;;;;;;;5012848;28;20041;-32
2023/11/02 08:19:44;;;;;;;2.63;0.80;;;;;;;;;;5012918;28;20037;-32
2023/11/02 08:22:11;;;;;;;2.65;1.02;;;;;;;;;;5013191;28;20469;-32
2023/11/02 08:24:38;;;;;;;2.10;0.60;;;;;;;;;;5012767;28;20522;-32
2023/11/02 08:27:06;;;;;;;2.22;0.80;;;;;;;;;;5012716;28;20057;-32
2023/11/02 08:29:33;;;;;;;1.80;0.60;;;;;;;;;;5012618;28;20030;-32
2023/11/02 08:32:00;;;;;;;1.80;0.60;;;;;;;;;;5012907;28;20038;-32
2023/11/02 08:34:27;;;;;;;2.33;0.70;;;;;;;;;;5012665;28;20377;-32
2023/11/02 08:36:54;;;;;;;2.47;1.05;;;;;;;;;;5012770;28;20100;-32
2023/11/02 08:39:21;;;;;;;3.63;1.05;;;;;;;;;;5012661;28;20639;-32
2023/11/02 08:41:49;;;;;;;4.32;0.95;;;;;;;;;;5012689;28;20388;-32
2023/11/02 08:44:16;;;;;;;2.00;0.70;;;;;;;;;;5012504;28;20044;-32
2023/11/02 08:46:43;;;;;;;2.25;0.95;;;;;;;;;;5012545;28;20493;-32
2023/11/02 08:49:10;;;;;;;3.83;0.90;;;;;;;;;;5012510;28;20026;-32
2023/11/02 08:51:37;;;;;;;1.42;0.77;;;;;;;;;;5012523;28;20535;-32
2023/11/02 08:54:04;;;;;;;2.67;0.70;;;;;;;;;;5012386;28;20145;-32
2023/11/02 08:56:31;;;;;;;2.20;0.70;;;;;;;;;;5011416;28;20034;-32
2023/11/02 08:58:58;;;;;;;1.83;0.60;;;;;;;;;;5012099;28;20038;-32
2023/11/02 09:01:26;;;;;;;1.95;0.70;;;;;;;;;;5012071;28;20084;-32
2023/11/02 09:03:54;;;;;;;2.70;0.73;;;;;;;;;;5012257;28;20042;-32
2023/11/02 09:06:22;;;;;;;2.45;0.60;;;;;;;;;;5012193;28;20050;-33
2023/11/02 09:08:49;;;;;;;3.38;0.60;;;;;;;;;;5012184;28;20045;-32
2023/11/02 09:11:17;;;;;;;1.63;0.70;;;;;;;;;;5012086;28;20018;-32
2023/11/02 09:13:44;;;;;;;2.80;0.60;;;;;;;;;;5012031;28;20030;-32
2023/11/02 09:16:11;;;;;;;1.50;0.55;;;;;;;;;;5012188;28;20029;-32
2023/11/02 09:18:41;;;;;;;1.48;0.52;;;;;;;;;;5011975;28;20028;-33
2023/11/02 09:21:08;;;;;;;1.88;0.60;;;;;;;;;;5012065;28;20037;-33
2023/11/02 09:23:37;;;;;;;1.55;0.47;;;;;;;;;;5011933;28;20038;-33
2023/11/02 09:26:05;;;;;;;1.58;0.57;;;;;;;;;;5011578;28;20042;-33
2023/11/02 09:28:33;;;;;;;1.33;0.70;;;;;;;;;;5011814;28;20048;-33
2023/11/02 09:31:01;;;;;;;2.05;0.63;;;;;;;;;;5011965;28;20388;-32
2023/11/02 09:33:28;;;;;;;0.98;0.60;;;;;;;;;;5011897;28;20512;-32
2023/11/02 09:35:55;;;;;;;1.65;0.75;;;;;;;;;;5011909;28;20038;-32
2023/11/02 09:38:21;;;;;;;1.65;0.52;;;;;;;;;;5011910;28;20431;-32
2023/11/02 09:40:51;;;;;;;2.17;0.63;;;;;;;;;;5011686;28;20034;-32
2023/11/02 09:43:18;;;;;;;2.00;0.93;;;;;;;;;;5011421;28;20053;-32
2023/11/02 09:45:45;;;;;;;2.45;0.60;;;;;;;;;;5011727;28;20033;-32
2023/11/02 09:48:12;;;;;;;1.02;0.60;;;;;;;;;;4993965;28;20571;-32
2023/11/02 09:50:40;;;;;;;1.42;0.47;;;;;;;;;;5011910;28;20119;-32
2023/11/02 09:53:07;;;;;;;2.22;0.70;;;;;;;;;;5011493;28;20049;-32
2023/11/02 09:55:34;;;;;;;1.33;0.47;;;;;;;;;;5011569;28;20112;-32
2023/11/02 09:58:01;;;;;;;1.25;0.60;;;;;;;;;;5011710;28;20080;-32
2023/11/02 10:00:28;;;;;;;1.55;0.55;;;;;;;;;;5011702;28;20101;-32
2023/11/02 10:02:55;;;;;;;1.67;0.55;;;;;;;;;;5011295;28;20372;-32
2023/11/02 10:05:24;;;;;;;1.48;0.50;;;;;;;;;;5011726;28;20436;-32
2023/11/02 10:07:51;;;;;;;1.52;0.55;;;;;;;;;;5014174;28;20044;-32
2023/11/02 10:10:18;;;;;;;1.80;0.50;;;;;;;;;;5015449;28;20029;-32
2023/11/02 10:12:45;;;;;;;2.03;0.60;;;;;;;;;;5015256;28;20049;-32
2023/11/02 10:15:16;;;;;;;4.22;0.90;;;;;;;;;;5015302;28;20112;-32
2023/11/02 10:17:44;;;;;;;2.22;0.70;;;;;;;;;;5015190;28;20111;-32
2023/11/02 10:20:14;;;;;;;2.45;0.50;;;;;;;;;;5014769;28;20044;-32
2023/11/02 10:22:42;;;;;;;2.67;0.73;;;;;;;;;;5006472;28;20045;-32
2023/11/02 10:25:13;;;;;;;1.67;0.50;;;;;;;;;;5014665;28;20034;-32
2023/11/02 10:27:44;;;;;;;1.15;0.45;;;;;;;;;;5014760;28;20057;-32
2023/11/02 10:30:12;;;;;;;2.03;0.70;;;;;;;;;;5015001;28;20028;-32
2023/11/02 10:32:39;;;;;;;1.63;0.70;;;;;;;;;;5014917;28;20037;-32
2023/11/02 10:35:06;;;;;;;1.00;0.50;;;;;;;;;;4996228;28;20392;-32
2023/11/02 10:37:34;;;;;;;1.73;0.60;;;;;;;;;;5013561;28;20065;-33
2023/11/02 10:40:02;;;;;;;4.55;0.68;;;;;;;;;;5014406;28;20030;-33
2023/11/02 10:42:29;;;;;;;2.60;0.85;;;;;;;;;;5014343;28;20033;-33
2023/11/02 10:44:57;;;;;;;6.07;0.73;;;;;;;;;;5013728;28;20065;-33
2023/11/02 10:47:29;;;;;;;4.35;0.75;;;;;;;;;;5014591;28;20041;-32
2023/11/02 10:49:58;;;;;;;7.65;0.90;;;;;;;;;;5014506;28;20065;-32
2023/11/02 10:52:30;;;;;;;8.13;1.17;;;;;;;;;;5014185;28;20046;-33
2023/11/02 10:55:05;;;;;;;10.43;1.08;;;;;;;;;;5014386;28;20028;-32
2023/11/02 10:57:32;;;;;;;6.97;0.80;;;;;;;;;;5014657;28;20515;-32
2023/11/02 10:59:59;;;;;;;13.32;1.20;;;;;;;;;;5014296;28;20388;-32
2023/11/02 11:02:26;;;;;;;10.00;0.85;;;;;;;;;;5014395;28;20503;-32
2023/11/02 11:04:54;;;;;;;8.00;0.80;;;;;;;;;;5014419;28;20030;-32
2023/11/02 11:07:22;;;;;;;5.47;0.90;;;;;;;;;;5014374;28;20030;-32
2023/11/02 11:09:49;;;;;;;6.88;0.85;;;;;;;;;;5014387;28;20034;-32
2023/11/02 11:12:20;;;;;;;4.53;0.93;;;;;;;;;;5014131;28;20102;-32
2023/11/02 11:14:48;;;;;;;8.65;1.15;;;;;;;;;;5014013;28;20034;-32
2023/11/02 11:17:15;;;;;;;4.72;0.90;;;;;;;;;;5014265;28;20108;-32
2023/11/02 11:19:42;;;;;;;8.45;1.05;;;;;;;;;;5013148;28;20544;-32
2023/11/02 11:22:11;;;;;;;2.53;0.70;;;;;;;;;;5013890;28;20036;-32
2023/11/02 11:24:38;;;;;;;3.45;1.00;;;;;;;;;;5013877;28;20393;-32
2023/11/02 11:27:06;;;;;;;4.70;1.10;;;;;;;;;;5013883;28;20520;-32
2023/11/02 11:29:40;;;;;;;3.50;0.82;;;;;;;;;;5014020;28;20026;-32
2023/11/02 11:32:27;;;;;;;2.92;0.65;;;;;;;;;;5013680;28;20026;-32
2023/11/02 11:34:58;;;;;;;2.22;0.70;;;;;;;;;;5008969;28;20053;-32
2023/11/02 11:37:42;;;;;;;3.50;1.15;;;;;;;;;;5013749;28;20148;-32
2023/11/02 11:40:31;;;;;;;4.32;0.90;;;;;;;;;;5013627;28;20033;-32
2023/11/02 11:43:12;;;;;;;4.65;0.75;;;;;;;;;;5000029;28;20046;-34
2023/11/02 11:45:39;;;;;;;4.15;0.80;;;;;;;;;;5002647;28;20038;-32
2023/11/02 11:48:12;;;;;;;3.92;0.88;;;;;;;;;;5011234;28;20026;-32
2023/11/02 11:50:40;;;;;;;6.28;0.80;;;;;;;;;;5012505;28;20105;-32
2023/11/02 11:53:23;;;;;;;4.10;1.23;;;;;;;;;;5010315;28;20030;-32
2023/11/02 11:55:57;;;;;;;6.97;1.23;;;;;;;;;;5010571;28;20026;-32
2023/11/02 11:58:41;;;;;;;9.07;1.00;;;;;;;;;;5009648;28;20029;-33
2023/11/02 12:01:16;;;;;;;6.82;1.10;;;;;;;;;;5010771;28;20025;-32
2023/11/02 12:03:44;;;;;;;3.35;0.52;;;;;;;;;;5007313;28;20049;-33
2023/11/02 12:06:20;;;;;;;5.07;0.90;;;;;;;;;;5011473;28;20507;-34
2023/11/02 12:08:48;;;;;;;5.80;1.23;;;;;;;;;;5009547;28;20691;-32
2023/11/02 12:11:24;;;;;;;7.10;0.90;;;;;;;;;;5010478;28;20038;-32
2023/11/02 12:13:52;;;;;;;4.63;0.75;;;;;;;;;;5011082;28;20026;-32
2023/11/02 12:16:20;;;;;;;6.60;0.93;;;;;;;;;;5012759;28;20380;-33
2023/11/02 12:18:51;;;;;;;3.95;0.85;;;;;;;;;;5011794;28;20037;-33
2023/11/02 12:21:19;;;;;;;7.63;0.90;;;;;;;;;;5011894;28;20045;-35
2023/11/02 12:23:47;;;;;;;2.22;0.60;;;;;;;;;;5011620;28;20116;-34
2023/11/02 12:26:14;;;;;;;2.28;0.70;;;;;;;;;;5010620;28;20054;-35
2023/11/02 12:28:56;;;;;;;1.55;0.70;;;;;;;;;;5011722;28;20030;-33
2023/11/02 12:31:30;;;;;;;4.40;0.90;;;;;;;;;;5012349;28;20037;-33
2023/11/02 12:34:05;;;;;;;5.25;0.70;;;;;;;;;;5012166;28;20100;-33
2023/11/02 12:36:32;;;;;;;6.35;0.70;;;;;;;;;;5010719;28;20034;-35
2023/11/02 12:38:59;;;;;;;5.18;0.93;;;;;;;;;;5011954;28;20084;-33
2023/11/02 12:41:26;;;;;;;7.35;0.95;;;;;;;;;;5012092;28;20022;-33
2023/11/02 12:43:59;;;;;;;8.45;0.90;;;;;;;;;;5005064;28;20046;-34
2023/11/02 12:46:28;;;;;;;5.63;0.90;;;;;;;;;;5011668;28;20472;-34
2023/11/02 12:48:55;;;;;;;8.20;0.95;;;;;;;;;;5008936;28;20064;-33
2023/11/02 12:51:23;;;;;;;4.45;1.00;;;;;;;;;;5010431;28;20022;-29
2023/11/02 12:53:51;;;;;;;11.27;1.10;;;;;;;;;;5009963;28;20022;-29
2023/11/02 12:56:23;;;;;;;5.43;0.82;;;;;;;;;;5010657;28;20069;-33
2023/11/02 12:59:00;;;;;;;7.07;0.90;;;;;;;;;;5010211;28;20029;-33
2023/11/02 13:01:47;;;;;;;8.13;1.48;;;;;;;;;;5010543;28;20327;-34
2023/11/02 13:04:14;;;;;;;8.13;1.13;;;;;;;;;;5006946;28;20065;-33
2023/11/02 13:06:42;;;;;;;3.35;0.68;;;;;;;;;;5011111;28;20064;-33
2023/11/02 13:09:17;;;;;;;11.57;1.00;;;;;;;;;;5011461;28;20026;-31
2023/11/02 13:11:45;;;;;;;6.68;0.82;;;;;;;;;;5009909;28;20495;-31
2023/11/02 13:14:18;;;;;;;4.53;0.75;;;;;;;;;;5011211;28;20080;-32
2023/11/02 13:16:50;;;;;;;10.05;0.90;;;;;;;;;;5009069;28;20041;-32
2023/11/02 13:19:17;;;;;;;5.50;0.75;;;;;;;;;;5010772;28;20088;-32
2023/11/02 13:21:44;;;;;;;4.28;0.55;;;;;;;;;;5010975;28;20038;-34
2023/11/02 13:24:12;;;;;;;4.93;0.93;;;;;;;;;;5011113;28;20065;-32
2023/11/02 13:26:39;;;;;;;4.65;0.80;;;;;;;;;;5009970;28;20053;-32
2023/11/02 13:29:10;;;;;;;3.58;0.70;;;;;;;;;;5012181;28;20473;-32
2023/11/02 13:31:40;;;;;;;4.05;0.77;;;;;;;;;;5011078;28;20081;-36
2023/11/02 13:34:08;;;;;;;5.40;1.00;;;;;;;;;;5010556;28;20030;-33
2023/11/02 13:36:35;;;;;;;2.80;0.70;;;;;;;;;;5006907;28;20042;-31
2023/11/02 13:39:05;;;;;;;2.97;0.55;;;;;;;;;;5011729;28;20045;-34
2023/11/02 13:41:34;;;;;;;4.82;0.70;;;;;;;;;;5013583;28;20045;-33
2023/11/02 13:44:01;;;;;;;1.58;0.60;;;;;;;;;;5017550;28;20041;-32
2023/11/02 13:46:28;;;;;;;3.38;0.82;;;;;;;;;;5018130;28;20084;-31
2023/11/02 13:48:56;;;;;;;3.92;0.80;;;;;;;;;;5016628;28;20029;-30
2023/11/02 13:51:23;;;;;;;2.33;0.63;;;;;;;;;;5016955;28;20068;-35
2023/11/02 13:53:50;;;;;;;2.97;0.85;;;;;;;;;;5017841;28;20030;-33
2023/11/02 13:56:20;;;;;;;1.20;0.60;;;;;;;;;;5018072;28;20104;-31
2023/11/02 13:58:47;;;;;;;4.57;1.00;;;;;;;;;;5016330;28;20083;-30
2023/11/02 14:01:14;;;;;;;3.70;0.82;;;;;;;;;;5017490;28;20473;-31
2023/11/02 14:03:41;;;;;;;4.20;0.70;;;;;;;;;;5017195;28;20044;-31
2023/11/02 14:06:08;;;;;;;6.03;0.90;;;;;;;;;;5017198;28;20026;-32
2023/11/02 14:08:35;;;;;;;2.72;0.57;;;;;;;;;;5015994;28;20042;-29
2023/11/02 14:11:05;;;;;;;2.15;0.60;;;;;;;;;;5017343;28;20064;-32
2023/11/02 14:13:35;;;;;;;4.03;0.65;;;;;;;;;;5016514;28;20061;-33
2023/11/02 14:16:02;;;;;;;2.38;0.57;;;;;;;;;;5016893;28;20598;-32
2023/11/02 14:18:31;;;;;;;4.40;0.65;;;;;;;;;;5014521;28;20121;-32
2023/11/02 14:20:58;;;;;;;7.32;0.88;;;;;;;;;;5015051;28;20107;-33
2023/11/02 14:23:25;;;;;;;0.93;0.50;;;;;;;;;;5015403;28;20052;-33
2023/11/02 14:25:52;;;;;;;2.22;0.70;;;;;;;;;;5016615;28;20110;-34
2023/11/02 14:28:20;;;;;;;2.95;0.90;;;;;;;;;;5016031;28;20018;-34
2023/11/02 14:30:49;;;;;;;4.93;0.50;;;;;;;;;;5012476;28;20038;-33
2023/11/02 14:33:16;;;;;;;4.32;1.02;;;;;;;;;;5016433;28;20045;-34
2023/11/02 14:35:43;;;;;;;3.63;0.80;;;;;;;;;;5016959;28;20376;-34
2023/11/02 14:38:10;;;;;;;5.88;1.05;;;;;;;;;;5016417;28;20030;-33
2023/11/02 14:40:37;;;;;;;4.65;0.90;;;;;;;;;;5016627;28;20369;-33
2023/11/02 14:43:04;;;;;;;2.63;0.70;;;;;;;;;;5014485;28;20279;-34
2023/11/02 14:45:32;;;;;;;4.38;0.50;;;;;;;;;;5017116;28;20559;-33
2023/11/02 14:47:59;;;;;;;4.43;0.90;;;;;;;;;;5016370;28;20528;-33
2023/11/02 14:50:26;;;;;;;3.22;0.70;;;;;;;;;;5016064;28;20026;-33
2023/11/02 14:52:53;;;;;;;6.38;0.80;;;;;;;;;;5013123;28;20133;-33
2023/11/02 14:55:20;;;;;;;7.35;0.85;;;;;;;;;;5012887;28;20042;-33